Time;durP1;ratioP1;P1;durP2;ratioP2;P2;SDS_P1;SDS_P2;PMS_P1;PMS_P2;Temp;Humidity;BMP_temperature;BMP_pressure;BME280_temperature;BME280_humidity;BME280_pressure;Samples;Min_cycle;Max_cycle;Signal;HPM_P1;HPM_P2
2022/12/07 00:00:54;;;;;;;24.10;12.82;;;2.00;99.90;;;;;;5037080;28;20025;-71
2022/12/07 00:03:20;;;;;;;21.95;12.15;;;2.00;99.90;;;;;;5036009;28;20522;-69
2022/12/07 00:05:45;;;;;;;23.52;11.85;;;1.90;99.90;;;;;;5034407;28;20263;-71
2022/12/07 00:08:11;;;;;;;19.42;11.13;;;1.90;99.90;;;;;;5048345;28;20032;-71
2022/12/07 00:10:37;;;;;;;24.17;12.23;;;1.90;99.90;;;;;;5040414;28;20107;-70
2022/12/07 00:13:02;;;;;;;22.30;12.43;;;1.90;99.90;;;;;;5032231;28;20136;-71
2022/12/07 00:15:28;;;;;;;23.73;12.50;;;1.90;99.90;;;;;;5033319;28;20052;-71
2022/12/07 00:17:54;;;;;;;25.58;11.63;;;1.80;99.90;;;;;;5033659;28;20029;-71
2022/12/07 00:20:19;;;;;;;21.42;12.30;;;1.70;99.90;;;;;;5034559;28;20083;-70
2022/12/07 00:22:45;;;;;;;24.65;12.25;;;1.60;99.90;;;;;;5034471;28;20037;-71
2022/12/07 00:25:10;;;;;;;20.10;11.57;;;1.60;99.90;;;;;;5034981;28;20053;-71
2022/12/07 00:27:36;;;;;;;21.13;11.63;;;1.60;99.90;;;;;;5014730;28;20035;-70
2022/12/07 00:30:02;;;;;;;26.50;12.85;;;1.70;99.90;;;;;;5019335;28;20028;-71
2022/12/07 00:32:27;;;;;;;23.38;11.23;;;1.70;99.90;;;;;;5041402;28;20506;-71
2022/12/07 00:34:53;;;;;;;19.77;10.52;;;1.80;99.90;;;;;;5043514;28;20103;-70
2022/12/07 00:37:18;;;;;;;23.60;11.43;;;1.80;99.90;;;;;;5033941;28;20071;-70
2022/12/07 00:39:46;;;;;;;20.13;10.50;;;1.80;99.90;;;;;;5034189;28;20044;-71
2022/12/07 00:42:11;;;;;;;23.33;11.52;;;1.80;99.90;;;;;;5035494;28;20033;-71
2022/12/07 00:44:37;;;;;;;24.90;12.15;;;1.80;99.90;;;;;;5033020;28;20591;-72
2022/12/07 00:47:03;;;;;;;24.63;10.80;;;1.90;99.90;;;;;;5031948;28;20471;-70
2022/12/07 00:49:28;;;;;;;22.40;10.82;;;1.90;99.90;;;;;;5034170;28;20340;-72
2022/12/07 00:51:54;;;;;;;21.00;11.23;;;1.90;99.90;;;;;;5016479;28;20530;-73
2022/12/07 00:54:19;;;;;;;21.58;10.40;;;1.80;99.90;;;;;;5053773;28;20024;-72
2022/12/07 00:56:45;;;;;;;23.10;11.10;;;1.90;99.90;;;;;;5043793;28;20029;-72
2022/12/07 00:59:16;;;;;;;24.58;11.48;;;1.90;99.90;;;;;;5037009;28;20112;-72
2022/12/07 01:01:42;;;;;;;25.75;12.25;;;1.90;99.90;;;;;;5037934;28;20025;-72
2022/12/07 01:04:08;;;;;;;21.52;11.13;;;1.80;99.90;;;;;;5054432;28;20071;-71
2022/12/07 01:06:34;;;;;;;21.17;10.90;;;1.80;99.90;;;;;;5046842;28;20035;-71
2022/12/07 01:09:00;;;;;;;20.25;11.25;;;1.90;99.90;;;;;;5038109;28;20029;-73
2022/12/07 01:11:28;;;;;;;22.15;10.90;;;1.80;99.90;;;;;;5038678;28;20025;-72
2022/12/07 01:13:56;;;;;;;21.02;10.48;;;1.80;99.90;;;;;;5035602;28;20032;-72
2022/12/07 01:16:23;;;;;;;23.67;11.50;;;1.80;99.90;;;;;;5053879;28;20044;-72
2022/12/07 01:18:51;;;;;;;24.50;12.27;;;1.80;99.90;;;;;;5042954;28;20029;-72
2022/12/07 01:21:22;;;;;;;32.60;13.90;;;1.80;99.90;;;;;;5039616;28;20108;-72
2022/12/07 01:23:49;;;;;;;24.10;11.85;;;1.80;99.90;;;;;;5040470;28;20086;-72
2022/12/07 01:26:18;;;;;;;27.75;11.55;;;1.80;99.90;;;;;;5040723;28;20044;-72
2022/12/07 01:28:45;;;;;;;24.40;12.45;;;1.90;99.90;;;;;;5027373;28;20033;-72
2022/12/07 01:31:16;;;;;;;22.58;11.43;;;1.90;99.90;;;;;;5051226;28;20060;-72
2022/12/07 01:33:47;;;;;;;25.67;13.55;;;1.90;99.90;;;;;;5059539;28;20392;-72
2022/12/07 01:36:25;;;;;;;25.17;14.50;;;1.90;99.90;;;;;;5054305;28;20440;-71
2022/12/07 01:38:56;;;;;;;29.50;15.25;;;1.80;99.90;;;;;;5032869;28;20043;-72
2022/12/07 01:41:22;;;;;;;26.45;15.02;;;1.80;99.90;;;;;;5043382;28;20029;-72
2022/12/07 01:44:07;;;;;;;31.85;15.63;;;1.90;99.90;;;;;;5054723;28;20024;-72
2022/12/07 01:46:32;;;;;;;27.65;14.95;;;1.80;99.90;;;;;;5039184;28;20480;-71
2022/12/07 01:48:59;;;;;;;29.70;15.40;;;1.80;99.90;;;;;;5036375;28;20497;-72
2022/12/07 01:51:26;;;;;;;34.20;15.27;;;1.80;99.90;;;;;;5040131;28;20029;-72
2022/12/07 01:53:52;;;;;;;31.05;14.45;;;1.80;99.90;;;;;;5059534;28;20059;-71
2022/12/07 01:56:20;;;;;;;29.20;14.48;;;1.80;99.90;;;;;;5043835;28;20072;-72
2022/12/07 01:58:46;;;;;;;30.90;15.43;;;1.90;99.90;;;;;;5040984;28;20442;-72
2022/12/07 02:01:13;;;;;;;29.63;13.85;;;2.00;99.90;;;;;;5040202;28;20139;-72
2022/12/07 02:03:42;;;;;;;23.23;12.32;;;2.00;99.90;;;;;;5039130;28;20035;-71
2022/12/07 02:06:12;;;;;;;26.80;12.90;;;2.00;99.90;;;;;;5039077;28;20032;-70
2022/12/07 02:08:38;;;;;;;22.33;11.88;;;2.00;99.90;;;;;;5042670;28;20118;-71
2022/12/07 02:11:07;;;;;;;22.20;10.27;;;2.00;99.90;;;;;;5059065;28;20028;-72
2022/12/07 02:13:35;;;;;;;23.27;11.23;;;2.00;99.90;;;;;;5058033;28;20068;-72
2022/12/07 02:16:08;;;;;;;21.92;10.68;;;2.00;99.90;;;;;;5052157;28;20731;-72
2022/12/07 02:18:34;;;;;;;20.70;10.88;;;2.00;99.90;;;;;;5038603;28;20025;-72
2022/12/07 02:21:15;;;;;;;21.25;10.13;;;2.00;99.90;;;;;;5042812;28;20430;-72
2022/12/07 02:23:55;;;;;;;25.30;10.40;;;1.90;99.90;;;;;;5037802;28;20021;-71
2022/12/07 02:26:30;;;;;;;25.70;10.35;;;1.90;99.90;;;;;;5019630;28;20497;-72
2022/12/07 02:28:58;;;;;;;19.45;9.98;;;1.90;99.90;;;;;;5035194;28;20159;-71
2022/12/07 02:31:27;;;;;;;19.35;9.18;;;1.90;99.90;;;;;;5039529;28;20049;-72
2022/12/07 02:34:28;;;;;;;18.98;10.02;;;1.90;99.90;;;;;;5047477;28;20523;-72
2022/12/07 02:37:00;;;;;;;21.65;10.10;;;2.00;99.90;;;;;;5006424;28;20436;-72
2022/12/07 02:39:41;;;;;;;23.17;10.10;;;2.00;99.90;;;;;;5042869;28;20112;-71
2022/12/07 02:42:21;;;;;;;25.52;11.35;;;1.90;99.90;;;;;;5037036;28;20366;-71
2022/12/07 02:44:48;;;;;;;18.47;9.73;;;2.00;99.90;;;;;;5042496;28;20056;-72
2022/12/07 02:47:16;;;;;;;22.30;9.63;;;2.00;99.90;;;;;;5053309;28;20441;-72
2022/12/07 02:49:42;;;;;;;21.75;9.82;;;2.00;99.90;;;;;;5036612;28;20031;-72
2022/12/07 02:52:08;;;;;;;22.65;9.73;;;2.00;99.90;;;;;;5052929;28;20061;-72
2022/12/07 02:54:34;;;;;;;23.83;10.70;;;2.00;99.90;;;;;;5045226;28;20063;-72
2022/12/07 02:57:18;;;;;;;25.83;9.80;;;1.90;99.90;;;;;;5037158;28;20107;-72
2022/12/07 03:00:03;;;;;;;17.35;8.48;;;1.90;99.90;;;;;;5048182;28;20028;-71
2022/12/07 03:02:51;;;;;;;17.58;8.63;;;1.80;99.90;;;;;;5057895;28;20040;-71
2022/12/07 03:05:26;;;;;;;16.92;8.30;;;1.80;99.90;;;;;;5027745;28;20541;-71
2022/12/07 03:08:01;;;;;;;18.63;8.80;;;1.70;99.90;;;;;;5036839;28;20039;-72
2022/12/07 03:10:29;;;;;;;16.15;8.40;;;1.70;99.90;;;;;;5037476;28;20373;-72
2022/12/07 03:13:32;;;;;;;15.90;8.18;;;1.70;99.90;;;;;;5036847;28;20029;-72
2022/12/07 03:16:30;;;;;;;13.07;8.05;;;1.60;99.90;;;;;;5040795;28;20516;-72
2022/12/07 03:19:04;;;;;;;15.07;6.88;;;1.50;99.90;;;;;;5015023;28;20045;-71
2022/12/07 03:21:43;;;;;;;15.95;7.22;;;1.50;99.90;;;;;;5036953;28;20098;-72
2022/12/07 03:24:18;;;;;;;26.00;7.97;;;1.50;99.90;;;;;;5019895;28;20056;-71
2022/12/07 03:26:52;;;;;;;23.05;8.38;;;1.50;99.90;;;;;;5054408;28;20486;-71
2022/12/07 03:29:25;;;;;;;13.60;7.20;;;1.50;99.90;;;;;;5038776;28;20075;-71
2022/12/07 03:32:01;;;;;;;14.43;7.07;;;1.50;99.90;;;;;;5034252;28;20021;-72
2022/12/07 03:35:04;;;;;;;12.07;6.97;;;1.40;99.90;;;;;;5048291;28;20440;-71
2022/12/07 03:37:33;;;;;;;18.05;7.40;;;1.40;99.90;;;;;;5042034;28;20055;-72
2022/12/07 03:40:04;;;;;;;14.60;7.20;;;1.40;99.90;;;;;;5035008;28;20349;-72
2022/12/07 03:42:32;;;;;;;23.58;7.82;;;1.40;99.90;;;;;;5035408;28;20036;-71
2022/12/07 03:44:58;;;;;;;15.88;7.13;;;1.40;99.90;;;;;;5034606;28;20519;-72
2022/12/07 03:47:30;;;;;;;15.43;6.97;;;1.40;99.90;;;;;;5048349;28;20029;-71
2022/12/07 03:50:07;;;;;;;16.70;7.10;;;1.40;99.90;;;;;;5031344;28;20127;-72
2022/12/07 03:52:41;;;;;;;18.08;6.40;;;1.40;99.90;;;;;;5021203;28;20055;-72
2022/12/07 03:55:24;;;;;;;14.93;6.75;;;1.40;99.90;;;;;;5032107;28;20147;-72
2022/12/07 03:57:53;;;;;;;13.35;6.40;;;1.40;99.90;;;;;;5034472;28;20029;-72
2022/12/07 04:00:19;;;;;;;11.43;6.38;;;1.40;99.90;;;;;;5053975;28;20032;-72
2022/12/07 04:02:44;;;;;;;16.67;6.75;;;1.30;99.90;;;;;;5043395;28;20035;-72
2022/12/07 04:05:11;;;;;;;14.98;6.55;;;1.30;99.90;;;;;;5042907;28;20488;-71
2022/12/07 04:07:36;;;;;;;16.73;6.88;;;1.30;99.90;;;;;;5017630;28;20017;-72
2022/12/07 04:10:02;;;;;;;12.75;7.25;;;1.30;99.90;;;;;;5036484;28;20025;-72
2022/12/07 04:12:28;;;;;;;16.52;7.07;;;1.30;99.90;;;;;;5018442;28;20029;-72
2022/12/07 04:14:53;;;;;;;15.75;6.45;;;1.40;99.90;;;;;;5054930;28;20043;-72
2022/12/07 04:17:19;;;;;;;16.55;7.30;;;1.40;99.90;;;;;;5057727;28;20047;-72
2022/12/07 04:19:45;;;;;;;13.43;6.75;;;1.50;99.90;;;;;;5041406;28;20127;-72
2022/12/07 04:22:10;;;;;;;12.27;6.70;;;1.50;99.90;;;;;;5044169;28;20040;-72
2022/12/07 04:24:36;;;;;;;12.93;6.93;;;1.50;99.90;;;;;;5043908;28;20796;-72
2022/12/07 04:27:02;;;;;;;14.50;7.25;;;1.50;99.90;;;;;;5036178;28;20029;-72
2022/12/07 04:29:27;;;;;;;13.15;6.47;;;1.60;99.90;;;;;;5036902;28;20033;-72
2022/12/07 04:31:53;;;;;;;13.20;6.35;;;1.60;99.90;;;;;;5020829;28;20116;-72
2022/12/07 04:34:20;;;;;;;12.15;6.32;;;1.50;99.90;;;;;;5040085;28;20416;-72
2022/12/07 04:36:46;;;;;;;11.25;6.18;;;1.60;99.90;;;;;;5041809;28;20032;-72
2022/12/07 04:39:25;;;;;;;15.75;7.20;;;1.60;99.90;;;;;;5045754;28;20033;-72
2022/12/07 04:41:51;;;;;;;14.02;7.00;;;1.70;99.90;;;;;;5056357;28;20125;-72
2022/12/07 04:44:18;;;;;;;15.82;6.65;;;1.80;99.90;;;;;;5041619;28;20064;-72
2022/12/07 04:46:44;;;;;;;11.68;7.07;;;1.80;99.90;;;;;;5039067;28;20583;-72
2022/12/07 04:49:11;;;;;;;15.73;6.88;;;1.90;99.90;;;;;;5039874;28;20112;-72
2022/12/07 04:51:36;;;;;;;10.75;6.25;;;1.90;99.90;;;;;;5039409;28;20431;-72
2022/12/07 04:54:03;;;;;;;14.02;6.47;;;1.90;99.90;;;;;;5073836;28;20127;-72
2022/12/07 04:56:28;;;;;;;17.92;7.05;;;1.90;99.90;;;;;;5040445;28;20095;-72
2022/12/07 04:58:54;;;;;;;15.38;6.47;;;2.00;99.90;;;;;;5047310;28;20205;-72
2022/12/07 05:01:21;;;;;;;13.63;6.60;;;2.00;99.90;;;;;;5049345;28;20313;-71
2022/12/07 05:03:47;;;;;;;11.25;6.85;;;2.00;99.90;;;;;;5040766;28;20067;-72
2022/12/07 05:06:13;;;;;;;13.77;7.15;;;2.10;99.90;;;;;;5039660;28;20028;-72
2022/12/07 05:08:40;;;;;;;14.43;7.30;;;2.10;99.90;;;;;;5041125;28;20080;-72
2022/12/07 05:11:07;;;;;;;10.80;6.82;;;2.20;99.90;;;;;;5042727;28;20036;-71
2022/12/07 05:13:34;;;;;;;14.98;7.82;;;2.30;99.90;;;;;;5043236;28;20037;-72
2022/12/07 05:16:00;;;;;;;10.90;7.30;;;2.40;99.90;;;;;;5039068;28;20502;-72
2022/12/07 05:18:26;;;;;;;13.82;7.18;;;2.40;99.90;;;;;;5036511;28;20028;-72
2022/12/07 05:20:52;;;;;;;12.88;7.82;;;2.20;99.90;;;;;;5036406;28;20033;-71
2022/12/07 05:23:18;;;;;;;12.00;6.55;;;2.20;99.90;;;;;;5052896;28;20396;-72
2022/12/07 05:25:44;;;;;;;13.98;6.38;;;2.10;99.90;;;;;;5056325;28;20492;-72
2022/12/07 05:28:10;;;;;;;14.15;6.88;;;2.10;99.90;;;;;;5046220;28;20111;-71
2022/12/07 05:30:36;;;;;;;11.80;6.13;;;2.00;99.90;;;;;;5039917;28;20411;-72
2022/12/07 05:33:02;;;;;;;13.35;6.40;;;1.90;99.90;;;;;;5036890;28;20063;-72
2022/12/07 05:35:28;;;;;;;16.52;7.53;;;1.90;99.90;;;;;;5036930;28;20099;-71
2022/12/07 05:37:55;;;;;;;15.30;7.18;;;2.00;99.90;;;;;;5017595;28;20471;-71
2022/12/07 05:40:21;;;;;;;18.40;8.25;;;2.00;99.90;;;;;;5053712;28;20036;-72
2022/12/07 05:42:47;;;;;;;16.42;7.63;;;2.10;99.90;;;;;;5053082;28;20504;-71
2022/12/07 05:45:12;;;;;;;16.70;7.75;;;2.20;99.90;;;;;;5039624;28;20024;-72
2022/12/07 05:47:38;;;;;;;16.20;8.10;;;2.30;99.90;;;;;;5039626;28;20039;-71
2022/12/07 05:50:05;;;;;;;17.42;8.27;;;2.40;99.90;;;;;;5038851;28;20542;-72
2022/12/07 05:52:31;;;;;;;15.60;8.30;;;2.40;99.90;;;;;;5031593;28;20040;-72
2022/12/07 05:54:57;;;;;;;23.75;9.25;;;2.50;99.90;;;;;;5052530;28;20110;-72
2022/12/07 05:57:23;;;;;;;19.50;8.07;;;2.50;99.90;;;;;;5058882;28;20505;-72
2022/12/07 05:59:48;;;;;;;15.23;8.45;;;2.50;99.90;;;;;;5046440;28;20047;-72
2022/12/07 06:02:15;;;;;;;15.85;7.95;;;2.50;99.90;;;;;;5056074;28;20132;-71
2022/12/07 06:04:43;;;;;;;17.63;7.97;;;2.60;99.90;;;;;;5037130;28;20068;-72
2022/12/07 06:07:10;;;;;;;17.65;8.48;;;2.60;99.90;;;;;;5039447;28;20032;-71
2022/12/07 06:09:36;;;;;;;20.70;8.55;;;2.70;99.90;;;;;;5046228;28;20033;-71
2022/12/07 06:14:46;;;;;;;25.60;8.65;;;2.80;99.90;;;;;;5046808;28;20094;-72
2022/12/07 06:17:12;;;;;;;17.15;8.13;;;2.90;99.90;;;;;;5059648;28;20436;-72
2022/12/07 06:19:38;;;;;;;15.45;8.40;;;3.00;99.90;;;;;;5046691;28;20059;-72
2022/12/07 06:22:05;;;;;;;17.73;8.40;;;3.00;99.90;;;;;;5043286;28;20024;-71
2022/12/07 06:24:32;;;;;;;13.50;7.93;;;3.00;99.90;;;;;;5045680;28;20045;-72
2022/12/07 06:26:58;;;;;;;18.08;8.63;;;3.00;99.90;;;;;;5036080;28;20401;-70
2022/12/07 06:29:24;;;;;;;17.55;8.48;;;3.00;99.90;;;;;;5035935;28;20033;-72
2022/12/07 06:31:50;;;;;;;20.95;9.02;;;2.90;99.90;;;;;;5037896;28;20040;-71
2022/12/07 06:34:18;;;;;;;16.27;8.43;;;3.00;99.90;;;;;;5039836;28;20024;-71
2022/12/07 06:36:44;;;;;;;17.17;8.30;;;3.00;99.90;;;;;;5035718;28;20032;-72
2022/12/07 06:39:10;;;;;;;18.52;8.80;;;3.10;99.90;;;;;;5038995;28;20032;-72
2022/12/07 06:41:37;;;;;;;14.30;7.80;;;3.10;99.90;;;;;;5046148;28;20057;-71
2022/12/07 06:44:06;;;;;;;15.93;7.60;;;3.10;99.90;;;;;;5057169;28;20727;-72
2022/12/07 06:46:32;;;;;;;14.63;8.10;;;3.10;99.90;;;;;;5038284;28;20086;-72
2022/12/07 06:48:58;;;;;;;15.98;8.80;;;3.10;99.90;;;;;;5043387;28;20442;-72
2022/12/07 06:51:23;;;;;;;14.98;8.05;;;3.00;99.90;;;;;;5054669;28;20106;-72
2022/12/07 06:53:49;;;;;;;16.42;8.25;;;3.10;99.90;;;;;;5050794;28;20033;-71
2022/12/07 06:56:15;;;;;;;22.35;8.60;;;3.10;99.90;;;;;;5019169;28;20148;-72
2022/12/07 06:58:40;;;;;;;23.80;9.15;;;3.10;99.90;;;;;;5038874;28;20071;-72
2022/12/07 07:01:10;;;;;;;18.70;9.02;;;3.10;99.90;;;;;;5038005;28;20021;-72
2022/12/07 07:03:36;;;;;;;15.82;8.40;;;3.00;99.90;;;;;;5035756;28;20502;-72
2022/12/07 07:06:02;;;;;;;19.33;9.02;;;3.00;99.90;;;;;;5055298;28;20063;-72
2022/12/07 07:08:27;;;;;;;22.67;9.70;;;3.00;99.90;;;;;;5042063;28;20029;-72
2022/12/07 07:10:53;;;;;;;20.70;9.52;;;3.10;99.90;;;;;;5048593;28;20622;-72
2022/12/07 07:13:19;;;;;;;16.80;9.13;;;3.00;99.90;;;;;;5037162;28;20208;-71
2022/12/07 07:15:44;;;;;;;20.02;9.68;;;3.00;99.90;;;;;;5036576;28;20513;-71
2022/12/07 07:18:10;;;;;;;19.20;9.15;;;3.00;99.90;;;;;;5038579;28;20363;-72
2022/12/07 07:20:36;;;;;;;20.45;9.43;;;2.90;99.90;;;;;;5041834;28;20485;-72
2022/12/07 07:23:02;;;;;;;18.73;9.93;;;3.00;99.90;;;;;;5050414;28;20034;-72
2022/12/07 07:25:28;;;;;;;21.83;9.32;;;2.90;99.90;;;;;;5050399;28;20041;-72
2022/12/07 07:27:54;;;;;;;21.63;10.52;;;2.90;99.90;;;;;;5022007;28;20021;-72
2022/12/07 07:30:20;;;;;;;24.75;10.25;;;2.80;99.90;;;;;;5034423;28;20488;-72
2022/12/07 07:32:46;;;;;;;20.98;9.48;;;2.90;99.90;;;;;;5052964;28;20094;-72
2022/12/07 07:35:12;;;;;;;17.05;9.27;;;2.80;99.90;;;;;;5038087;28;20114;-72
2022/12/07 07:37:37;;;;;;;22.80;10.18;;;2.90;99.90;;;;;;5036426;28;20025;-72
2022/12/07 07:40:03;;;;;;;18.13;9.05;;;2.80;99.90;;;;;;5036969;28;20112;-72
2022/12/07 07:42:29;;;;;;;16.90;8.55;;;2.90;99.90;;;;;;5036995;28;20434;-72
2022/12/07 07:44:55;;;;;;;18.33;8.63;;;2.90;99.90;;;;;;5017778;28;20512;-72
2022/12/07 07:47:20;;;;;;;19.25;9.98;;;2.90;99.90;;;;;;5035445;28;20100;-72
2022/12/07 07:49:46;;;;;;;17.75;9.43;;;3.00;99.90;;;;;;5038553;28;20040;-72
2022/12/07 07:52:11;;;;;;;20.48;9.23;;;3.00;99.90;;;;;;5035657;28;20412;-72
2022/12/07 07:54:37;;;;;;;17.02;9.20;;;3.10;99.90;;;;;;5035684;28;20152;-71
2022/12/07 07:57:03;;;;;;;19.15;8.93;;;3.10;99.90;;;;;;5035590;28;20098;-72
2022/12/07 07:59:29;;;;;;;17.35;8.18;;;3.10;99.90;;;;;;5039178;28;20496;-72
2022/12/07 08:01:54;;;;;;;19.58;9.25;;;3.10;99.90;;;;;;5032054;28;20027;-71
2022/12/07 08:04:20;;;;;;;19.63;8.45;;;3.20;99.90;;;;;;5031527;28;20029;-72
2022/12/07 08:06:45;;;;;;;16.13;8.32;;;3.30;99.90;;;;;;5013325;28;20443;-72
2022/12/07 08:09:12;;;;;;;15.73;8.60;;;3.40;99.90;;;;;;5034252;28;20067;-72
2022/12/07 08:11:37;;;;;;;20.92;9.25;;;3.40;99.90;;;;;;5044004;28;20035;-72
2022/12/07 08:14:03;;;;;;;18.30;9.27;;;3.50;99.90;;;;;;5037871;28;20469;-72
2022/12/07 08:16:29;;;;;;;19.95;10.30;;;3.50;99.90;;;;;;5027966;28;20033;-71
2022/12/07 08:18:55;;;;;;;21.15;9.23;;;3.60;99.90;;;;;;5037313;28;20082;-72
2022/12/07 08:21:20;;;;;;;21.20;10.13;;;3.60;99.90;;;;;;5044987;28;20515;-71
2022/12/07 08:23:46;;;;;;;19.05;8.65;;;3.70;99.90;;;;;;5045846;28;20471;-72
2022/12/07 08:26:15;;;;;;;18.90;8.60;;;3.70;99.90;;;;;;5035570;28;20095;-72
2022/12/07 08:28:41;;;;;;;15.80;8.15;;;3.70;99.90;;;;;;5036760;28;20086;-72
2022/12/07 08:31:13;;;;;;;15.95;7.57;;;3.80;99.90;;;;;;5045194;28;20507;-72
2022/12/07 08:33:39;;;;;;;16.75;8.60;;;3.90;99.90;;;;;;5047185;28;20059;-71
2022/12/07 08:36:07;;;;;;;17.42;8.85;;;4.00;99.90;;;;;;5030483;28;20071;-72
2022/12/07 08:38:37;;;;;;;13.23;8.40;;;4.00;99.90;;;;;;5030251;28;20032;-72
2022/12/07 08:41:03;;;;;;;15.35;8.15;;;4.10;99.90;;;;;;5025407;28;20989;-72
2022/12/07 08:43:29;;;;;;;15.95;8.20;;;4.10;99.90;;;;;;5025940;28;20123;-72
2022/12/07 08:46:03;;;;;;;13.02;7.93;;;4.30;99.90;;;;;;5008818;28;20052;-71
2022/12/07 08:48:30;;;;;;;20.17;7.75;;;4.40;99.90;;;;;;5029611;28;20107;-71
2022/12/07 08:50:57;;;;;;;14.38;6.75;;;4.50;99.90;;;;;;5027363;28;20017;-72
2022/12/07 08:53:22;;;;;;;16.52;6.60;;;4.60;99.90;;;;;;5030686;28;20029;-72
2022/12/07 08:55:49;;;;;;;17.15;7.55;;;4.80;99.90;;;;;;5023005;28;20041;-72
2022/12/07 08:58:14;;;;;;;13.45;6.60;;;4.90;99.90;;;;;;5025387;28;20041;-72
2022/12/07 09:00:40;;;;;;;19.27;6.85;;;5.00;99.90;;;;;;5028675;28;20118;-72
2022/12/07 09:03:06;;;;;;;12.85;7.15;;;5.20;99.90;;;;;;5031521;28;20373;-71
2022/12/07 09:05:33;;;;;;;15.82;7.40;;;5.30;99.90;;;;;;5031490;28;20064;-72
2022/12/07 09:08:01;;;;;;;13.48;6.70;;;5.40;99.90;;;;;;5023284;28;20515;-72
2022/12/07 09:10:28;;;;;;;14.40;7.28;;;5.30;99.90;;;;;;5026391;28;20033;-70
2022/12/07 09:12:53;;;;;;;14.93;7.65;;;5.30;99.90;;;;;;5021124;28;20033;-70
2022/12/07 09:15:19;;;;;;;14.60;6.75;;;5.40;99.90;;;;;;5031791;28;20057;-72
2022/12/07 09:17:45;;;;;;;14.55;7.65;;;5.60;99.90;;;;;;5031523;28;20468;-72
2022/12/07 09:20:11;;;;;;;14.18;8.75;;;5.60;99.90;;;;;;5029335;28;20028;-70
2022/12/07 09:22:37;;;;;;;13.30;6.70;;;5.70;99.90;;;;;;5032274;28;20028;-70
2022/12/07 09:25:03;;;;;;;14.15;7.35;;;5.80;99.90;;;;;;5035910;28;20037;-71
2022/12/07 09:27:29;;;;;;;16.73;6.78;;;5.90;99.90;;;;;;5046629;28;20033;-71
2022/12/07 09:29:55;;;;;;;11.40;6.82;;;5.90;99.90;;;;;;5031103;28;20973;-71
2022/12/07 09:32:21;;;;;;;14.32;6.70;;;6.10;99.90;;;;;;5040427;28;20028;-71
2022/12/07 09:34:47;;;;;;;16.15;7.10;;;6.30;99.90;;;;;;5029910;28;20033;-70
2022/12/07 09:37:13;;;;;;;14.40;6.45;;;6.60;99.90;;;;;;5049266;28;20032;-71
2022/12/07 09:39:39;;;;;;;11.95;6.05;;;6.90;98.50;;;;;;5034474;28;20039;-71
2022/12/07 09:42:07;;;;;;;17.25;6.60;;;7.10;97.40;;;;;;5052036;28;20110;-71
2022/12/07 09:44:34;;;;;;;9.98;5.88;;;7.20;96.60;;;;;;5046657;28;20112;-71
2022/12/07 09:47:01;;;;;;;10.48;6.00;;;7.30;95.30;;;;;;5036070;28;20396;-71
2022/12/07 09:49:30;;;;;;;8.95;5.82;;;7.50;94.90;;;;;;5047729;28;20040;-71
2022/12/07 09:52:26;;;;;;;10.70;5.88;;;7.90;93.40;;;;;;5034664;28;20436;-71
2022/12/07 09:54:52;;;;;;;12.55;6.93;;;8.30;91.90;;;;;;5017176;28;20045;-71
2022/12/07 09:57:23;;;;;;;13.38;6.78;;;8.30;90.40;;;;;;5034884;28;20068;-71
2022/12/07 09:59:49;;;;;;;9.70;6.05;;;8.30;90.80;;;;;;5031561;28;20038;-71
2022/12/07 10:02:45;;;;;;;13.52;6.03;;;8.10;90.10;;;;;;4685100;28;10000068;-71
2022/12/07 10:05:24;;;;;;;9.57;5.50;;;8.00;90.30;;;;;;5037040;28;20357;-70
2022/12/07 10:07:49;;;;;;;10.50;5.47;;;7.60;91.50;;;;;;5032382;28;20559;-71
2022/12/07 10:10:30;;;;;;;11.85;5.13;;;7.70;92.10;;;;;;5031053;28;20063;-70
2022/12/07 10:13:07;;;;;;;9.15;4.03;;;7.70;91.50;;;;;;5041740;28;20098;-71
2022/12/07 10:15:59;;;;;;;7.68;4.63;;;7.70;92.10;;;;;;5036574;28;20126;-71
2022/12/07 10:18:36;;;;;;;9.90;4.47;;;7.50;91.30;;;;;;5041230;28;20529;-71
2022/12/07 10:21:20;;;;;;;6.57;3.92;;;7.40;91.60;;;;;;5031261;28;20067;-71
2022/12/07 10:24:04;;;;;;;10.63;4.82;;;7.40;93.50;;;;;;5024942;28;20021;-72
2022/12/07 10:26:59;;;;;;;6.82;4.47;;;7.30;92.60;;;;;;5024091;28;20310;-71
2022/12/07 10:29:31;;;;;;;8.57;4.20;;;7.20;93.50;;;;;;5015637;28;20405;-71
2022/12/07 10:31:58;;;;;;;11.38;5.05;;;7.20;94.10;;;;;;5013686;28;20025;-71
2022/12/07 10:34:30;;;;;;;8.95;3.95;;;7.10;93.10;;;;;;5042563;28;20071;-71
2022/12/07 10:37:14;;;;;;;5.32;3.92;;;7.30;94.60;;;;;;5036901;28;20332;-71
2022/12/07 10:39:52;;;;;;;10.75;4.93;;;7.70;94.10;;;;;;5037615;28;20412;-71
2022/12/07 10:42:25;;;;;;;8.32;5.00;;;8.10;92.00;;;;;;5030137;28;20041;-71
2022/12/07 10:45:09;;;;;;;9.95;5.18;;;8.50;90.80;;;;;;5042798;28;20033;-71
2022/12/07 10:48:07;;;;;;;10.35;5.63;;;8.20;89.00;;;;;;5031284;28;20116;-71
2022/12/07 10:50:48;;;;;;;9.77;5.50;;;7.80;92.00;;;;;;5028912;28;20037;-71
2022/12/07 10:53:27;;;;;;;8.63;6.10;;;7.80;93.10;;;;;;5028857;28;20039;-71
2022/12/07 10:56:11;;;;;;;10.82;5.57;;;7.90;92.30;;;;;;5023494;28;20044;-71
2022/12/07 10:58:58;;;;;;;9.10;5.50;;;7.70;93.50;;;;;;5032769;28;20025;-71
2022/12/07 11:01:46;;;;;;;14.10;6.07;;;8.00;91.90;;;;;;5038969;28;21929;-71
2022/12/07 11:04:41;;;;;;;16.83;6.32;;;8.30;91.70;;;;;;5031894;28;20033;-72
2022/12/07 11:07:16;;;;;;;14.50;6.50;;;8.60;87.90;;;;;;5004416;28;20047;-71
2022/12/07 11:09:42;;;;;;;12.13;5.93;;;9.30;83.20;;;;;;5031815;28;20178;-71
2022/12/07 11:12:29;;;;;;;12.48;6.63;;;9.80;77.60;;;;;;5035736;28;20895;-71
2022/12/07 11:15:18;;;;;;;12.15;5.78;;;9.90;75.30;;;;;;5035747;28;20025;-71
2022/12/07 11:18:02;;;;;;;13.20;6.15;;;9.50;76.60;;;;;;5023265;28;20029;-71
2022/12/07 11:20:51;;;;;;;12.90;5.97;;;9.20;77.10;;;;;;5035772;28;20350;-71
2022/12/07 11:23:20;;;;;;;9.70;5.45;;;9.00;79.00;;;;;;5027793;28;20119;-71
2022/12/07 11:26:21;;;;;;;11.02;6.28;;;9.10;80.50;;;;;;5050761;28;20163;-72
2022/12/07 11:28:55;;;;;;;10.23;5.70;;;9.30;78.60;;;;;;4966795;28;20085;-70
2022/12/07 11:31:44;;;;;;;15.35;6.20;;;9.60;78.50;;;;;;5005976;28;20041;-71
2022/12/07 11:34:24;;;;;;;11.80;5.60;;;9.80;73.40;;;;;;5036207;28;20033;-71
2022/12/07 11:36:53;;;;;;;8.50;5.47;;;9.40;77.60;;;;;;5040679;28;20114;-70
2022/12/07 11:39:20;;;;;;;17.70;6.03;;;9.30;76.70;;;;;;5045115;28;20388;-70
2022/12/07 11:41:52;;;;;;;11.13;6.07;;;9.20;78.80;;;;;;5033320;28;20032;-70
2022/12/07 11:44:30;;;;;;;16.98;6.45;;;9.00;81.20;;;;;;5031799;28;20036;-70
2022/12/07 11:47:35;;;;;;;13.73;6.63;;;8.60;81.90;;;;;;5029087;28;20412;-70
2022/12/07 11:50:33;;;;;;;11.73;5.95;;;7.90;88.30;;;;;;4951834;28;20105;-70
2022/12/07 11:53:07;;;;;;;10.90;6.78;;;8.40;89.60;;;;;;5020134;28;20126;-71
2022/12/07 11:55:57;;;;;;;11.48;6.75;;;8.80;88.40;;;;;;5016395;28;20412;-69
2022/12/07 11:58:41;;;;;;;9.15;5.57;;;9.50;81.30;;;;;;4665782;28;10000247;-70
2022/12/07 12:01:13;;;;;;;9.75;4.80;;;9.90;74.20;;;;;;5033485;28;20094;-69
2022/12/07 12:03:46;;;;;;;9.57;5.28;;;10.40;73.60;;;;;;5042156;28;20036;-69
2022/12/07 12:06:13;;;;;;;10.07;5.32;;;10.90;71.50;;;;;;5012740;28;20318;-69
2022/12/07 12:08:47;;;;;;;10.88;5.18;;;11.30;69.30;;;;;;5048645;28;20036;-70
2022/12/07 12:11:49;;;;;;;8.95;5.45;;;11.30;70.30;;;;;;5035399;28;20041;-70
2022/12/07 12:14:24;;;;;;;7.63;5.22;;;10.60;70.20;;;;;;5053922;28;20393;-69
2022/12/07 12:17:31;;;;;;;8.98;5.03;;;10.10;74.10;;;;;;5031825;28;21045;-70
2022/12/07 12:20:23;;;;;;;10.82;5.47;;;9.80;75.40;;;;;;5022593;28;20769;-70
2022/12/07 12:22:59;;;;;;;11.43;5.53;;;9.80;75.70;;;;;;5052410;28;20036;-70
2022/12/07 12:25:29;;;;;;;8.88;4.63;;;9.80;75.20;;;;;;5047852;28;20124;-69
2022/12/07 12:28:00;;;;;;;9.82;5.32;;;9.90;75.00;;;;;;5013263;28;20056;-70
2022/12/07 12:30:33;;;;;;;7.25;4.90;;;9.80;74.40;;;;;;5035501;28;20553;-70
2022/12/07 12:33:19;;;;;;;7.55;4.70;;;9.30;76.40;;;;;;5035184;28;20164;-70
2022/12/07 12:35:45;;;;;;;6.93;4.35;;;9.50;76.70;;;;;;4703907;28;10000443;-70
2022/12/07 12:38:26;;;;;;;12.93;5.35;;;9.60;77.00;;;;;;5026487;28;20361;-70
2022/12/07 12:40:53;;;;;;;10.85;5.30;;;9.00;75.40;;;;;;5050390;28;20052;-70
2022/12/07 12:43:42;;;;;;;18.88;8.80;;;9.00;78.40;;;;;;5040345;28;20032;-70
2022/12/07 12:46:30;;;;;;;19.92;10.18;;;8.70;80.00;;;;;;5048614;28;20659;-70
2022/12/07 12:49:20;;;;;;;15.63;6.68;;;8.20;80.70;;;;;;5047078;28;20559;-69
2022/12/07 12:51:50;;;;;;;11.05;5.85;;;7.90;84.50;;;;;;5039897;28;20086;-69
2022/12/07 12:54:25;;;;;;;13.10;5.10;;;7.50;90.00;;;;;;5042391;28;20028;-70
2022/12/07 12:57:09;;;;;;;11.40;5.50;;;7.60;88.70;;;;;;5049575;28;20028;-70
2022/12/07 12:59:39;;;;;;;11.25;5.47;;;7.30;90.40;;;;;;5046338;28;20040;-70
2022/12/07 13:02:28;;;;;;;20.83;8.95;;;7.40;90.90;;;;;;5047513;28;20029;-70
2022/12/07 13:05:01;;;;;;;19.48;8.50;;;7.80;90.90;;;;;;5048307;28;20518;-69
2022/12/07 13:07:49;;;;;;;19.90;9.32;;;7.70;89.40;;;;;;5049072;28;20110;-70